createdAt,value
2023-08-26T00:00:47.694Z,5.45
2023-08-26T00:03:50.397Z,5.35
2023-08-26T00:06:52.721Z,5.55
2023-08-26T00:09:55.407Z,5.90
2023-08-26T00:12:57.820Z,5.87
2023-08-26T00:16:00.524Z,5.85
2023-08-26T00:19:03.462Z,5.78
2023-08-26T00:22:06.488Z,6.25
2023-08-26T00:25:10.494Z,5.82
2023-08-26T00:28:13.416Z,6.50
2023-08-26T00:31:16.874Z,5.60
2023-08-26T00:34:19.830Z,6.35
2023-08-26T00:37:22.204Z,6.05
2023-08-26T00:40:24.891Z,6.00
2023-08-26T00:43:29.001Z,5.80
2023-08-26T00:46:32.188Z,6.30
2023-08-26T00:49:35.784Z,5.57
2023-08-26T00:52:39.702Z,6.72
2023-08-26T00:55:43.345Z,6.03
2023-08-26T00:58:46.074Z,6.63
2023-08-26T01:01:50.546Z,5.62
2023-08-26T01:04:54.057Z,5.18
2023-08-26T01:07:57.799Z,6.05
2023-08-26T01:11:06.699Z,5.80
2023-08-26T01:14:46.128Z,5.70
2023-08-26T01:17:49.382Z,5.90
2023-08-26T01:20:53.382Z,6.95
2023-08-26T01:23:57.476Z,6.82
2023-08-26T01:27:00.283Z,6.30
2023-08-26T01:30:03.184Z,7.30
2023-08-26T01:33:16.863Z,6.70
2023-08-26T01:36:24.619Z,6.37
2023-08-26T01:39:29.288Z,6.68
2023-08-26T01:42:34.417Z,6.43
2023-08-26T01:45:36.810Z,6.83
2023-08-26T01:48:41.126Z,6.60
2023-08-26T01:51:45.754Z,6.37
2023-08-26T01:54:50.542Z,6.90
2023-08-26T01:57:53.693Z,6.90
2023-08-26T02:00:56.659Z,6.10
2023-08-26T02:03:59.459Z,6.85
2023-08-26T02:07:01.865Z,6.32
2023-08-26T02:10:04.952Z,6.45
2023-08-26T02:13:08.439Z,6.37
2023-08-26T02:16:11.285Z,7.10
2023-08-26T02:19:13.646Z,6.40
2023-08-26T02:22:17.560Z,6.80
2023-08-26T02:25:20.921Z,6.35
2023-08-26T02:28:23.420Z,6.82
2023-08-26T02:31:26.195Z,6.30
2023-08-26T02:34:28.603Z,6.53
2023-08-26T02:37:31.482Z,6.55
2023-08-26T02:40:33.884Z,6.70
2023-08-26T02:43:36.738Z,6.50
2023-08-26T02:46:39.137Z,6.80
2023-08-26T02:49:42.037Z,6.47
2023-08-26T02:52:44.513Z,6.72
2023-08-26T02:55:47.246Z,6.72
2023-08-26T02:58:49.655Z,6.00
2023-08-26T03:02:04.697Z,6.13
2023-08-26T03:05:08.697Z,5.70
2023-08-26T03:08:11.479Z,7.10
2023-08-26T03:11:14.475Z,6.50
2023-08-26T03:14:18.992Z,6.28
2023-08-26T03:17:21.506Z,7.90
2023-08-26T03:20:24.768Z,7.22
2023-08-26T03:23:27.264Z,5.93
2023-08-26T03:26:29.936Z,6.03
2023-08-26T03:29:32.377Z,7.18
2023-08-26T03:32:35.436Z,6.43
2023-08-26T03:35:39.804Z,6.93
2023-08-26T03:38:42.472Z,6.20
2023-08-26T03:41:44.947Z,6.25
2023-08-26T03:44:47.743Z,7.12
2023-08-26T03:47:50.630Z,7.13
2023-08-26T03:50:54.831Z,6.87
2023-08-26T03:53:57.812Z,6.75
2023-08-26T03:57:00.544Z,6.62
2023-08-26T04:00:03.624Z,6.87
2023-08-26T04:03:07.043Z,7.40
2023-08-26T04:06:10.523Z,7.18
2023-08-26T04:09:13.727Z,7.32
2023-08-26T04:12:16.419Z,7.68
2023-08-26T04:15:18.942Z,6.57
2023-08-26T04:18:22.284Z,7.03
2023-08-26T04:21:25.168Z,7.50
2023-08-26T04:24:28.873Z,7.20
2023-08-26T04:27:34.183Z,7.00
2023-08-26T04:30:40.336Z,7.15
2023-08-26T04:33:44.940Z,7.53
2023-08-26T04:36:47.879Z,6.90
2023-08-26T04:39:51.320Z,6.60
2023-08-26T04:42:56.883Z,6.90
2023-08-26T04:46:00.207Z,6.82
2023-08-26T04:49:03.782Z,7.00
2023-08-26T04:52:06.406Z,7.22
2023-08-26T04:55:09.731Z,7.28
2023-08-26T04:58:12.212Z,6.68
2023-08-26T05:01:15.352Z,6.78
2023-08-26T05:04:17.840Z,6.97
2023-08-26T05:07:21.460Z,6.47
2023-08-26T05:10:24.544Z,7.62
2023-08-26T05:13:27.338Z,7.68
2023-08-26T05:16:29.808Z,7.37
2023-08-26T05:19:32.524Z,7.40
2023-08-26T05:22:34.983Z,7.15
2023-08-26T05:25:37.752Z,7.47
2023-08-26T05:28:40.143Z,7.60
2023-08-26T05:31:42.918Z,7.30
2023-08-26T05:34:45.354Z,7.37
2023-08-26T05:37:48.202Z,7.53
2023-08-26T05:40:50.891Z,7.20
2023-08-26T05:43:53.581Z,6.22
2023-08-26T05:46:56.941Z,7.05
2023-08-26T05:50:00.062Z,7.77
2023-08-26T05:53:05.573Z,8.30
2023-08-26T05:56:10.771Z,7.60
2023-08-26T05:59:14.264Z,7.37
2023-08-26T06:02:17.017Z,7.12
2023-08-26T06:05:19.844Z,7.07
2023-08-26T06:08:23.815Z,7.03
2023-08-26T06:11:27.530Z,6.53
2023-08-26T06:14:30.180Z,7.85
2023-08-26T06:17:35.743Z,7.70
2023-08-26T06:20:38.246Z,7.20
2023-08-26T06:23:40.996Z,7.22
2023-08-26T06:26:45.075Z,7.32
2023-08-26T06:30:04.090Z,8.82
2023-08-26T06:33:06.781Z,7.28
2023-08-26T06:36:09.903Z,7.33
2023-08-26T06:39:12.935Z,7.60
2023-08-26T06:42:16.036Z,6.90
2023-08-26T06:45:20.190Z,7.47
2023-08-26T06:48:24.895Z,7.28
2023-08-26T06:51:27.387Z,7.67
2023-08-26T06:54:31.602Z,7.20
2023-08-26T06:57:35.284Z,7.53
2023-08-26T07:00:38.006Z,8.18
2023-08-26T07:03:40.514Z,7.53
2023-08-26T07:06:43.198Z,8.43
2023-08-26T07:09:45.620Z,7.43
2023-08-26T07:12:48.338Z,7.43
2023-08-26T07:15:50.753Z,7.70
2023-08-26T07:18:53.482Z,8.13
2023-08-26T07:21:55.922Z,8.00
2023-08-26T07:24:58.825Z,7.72
2023-08-26T07:28:01.372Z,9.23
2023-08-26T07:31:06.036Z,8.45
2023-08-26T07:34:09.386Z,8.95
2023-08-26T07:37:13.122Z,8.10
2023-08-26T07:40:17.163Z,8.35
2023-08-26T07:43:19.836Z,8.30
2023-08-26T07:49:29.741Z,8.88
2023-08-26T07:52:32.336Z,9.07
2023-08-26T07:55:35.079Z,10.07
2023-08-26T07:58:37.524Z,9.07
2023-08-26T08:01:40.216Z,9.20
2023-08-26T08:04:43.096Z,9.10
2023-08-26T08:07:45.600Z,9.00
2023-08-26T08:10:49.056Z,8.77
2023-08-26T08:13:52.578Z,9.13
2023-08-26T08:16:55.376Z,8.35
2023-08-26T08:19:58.004Z,9.45
2023-08-26T08:23:00.690Z,9.07
2023-08-26T08:26:03.207Z,9.07
2023-08-26T08:29:05.962Z,10.45
2023-08-26T08:32:08.408Z,8.93
2023-08-26T08:35:11.290Z,9.50
2023-08-26T08:38:13.699Z,9.30
2023-08-26T08:41:16.317Z,9.98
2023-08-26T08:44:22.851Z,9.55
2023-08-26T08:47:26.122Z,9.55
2023-08-26T08:50:32.004Z,9.20
2023-08-26T08:53:45.507Z,10.63
2023-08-26T08:56:48.248Z,10.48
2023-08-26T08:59:53.257Z,10.23
2023-08-26T09:02:59.224Z,10.45
2023-08-26T09:06:02.270Z,9.93
2023-08-26T09:09:19.224Z,10.47
2023-08-26T09:12:31.111Z,10.23
2023-08-26T09:15:33.974Z,12.57
2023-08-26T09:18:40.769Z,11.52
2023-08-26T09:21:43.980Z,11.35
2023-08-26T09:24:48.049Z,11.30
2023-08-26T09:27:50.435Z,11.20
2023-08-26T09:31:07.063Z,11.18
2023-08-26T09:34:09.581Z,11.00
2023-08-26T09:37:13.877Z,11.02
2023-08-26T09:40:18.092Z,10.27
2023-08-26T09:43:22.098Z,11.60
2023-08-26T09:46:24.611Z,10.10
2023-08-26T09:49:27.419Z,11.20
2023-08-26T09:52:29.852Z,10.43
2023-08-26T09:55:33.414Z,11.27
2023-08-26T09:58:35.841Z,11.63
2023-08-26T10:01:40.203Z,10.40
2023-08-26T10:04:45.836Z,10.85
2023-08-26T10:07:52.785Z,10.82
2023-08-26T10:10:56.768Z,10.63
2023-08-26T10:14:01.621Z,10.95
2023-08-26T10:17:08.694Z,9.95
2023-08-26T10:20:12.406Z,10.82
2023-08-26T10:23:15.393Z,10.05
2023-08-26T10:26:20.200Z,10.07
2023-08-26T10:29:23.080Z,9.32
2023-08-26T10:32:29.210Z,9.55
2023-08-26T10:35:32.150Z,10.10
2023-08-26T10:38:38.421Z,10.20
2023-08-26T10:41:41.229Z,9.10
2023-08-26T10:44:47.386Z,10.13
2023-08-26T10:47:56.491Z,9.88
2023-08-26T10:51:03.655Z,9.88
2023-08-26T10:54:06.605Z,9.90
2023-08-26T10:57:10.075Z,10.60
2023-08-26T11:00:13.635Z,10.18
2023-08-26T11:03:19.341Z,10.20
2023-08-26T11:06:23.619Z,10.30
2023-08-26T11:09:26.069Z,10.65
2023-08-26T11:12:30.274Z,10.97
2023-08-26T11:15:37.897Z,9.77
2023-08-26T11:18:40.630Z,10.70
2023-08-26T11:21:43.026Z,8.80
2023-08-26T11:24:49.904Z,9.40
2023-08-26T11:27:52.926Z,9.17
2023-08-26T11:30:56.161Z,9.20
2023-08-26T11:33:58.525Z,9.68
2023-08-26T11:37:01.402Z,9.45
2023-08-26T11:40:07.871Z,9.02
2023-08-26T11:43:12.793Z,9.03
2023-08-26T11:46:15.319Z,8.30
2023-08-26T11:49:18.142Z,9.13
2023-08-26T11:52:20.966Z,9.93
2023-08-26T11:55:24.293Z,8.32
2023-08-26T11:58:29.440Z,8.67
2023-08-26T12:01:32.832Z,8.70
2023-08-26T12:04:38.675Z,9.43
2023-08-26T12:07:45.797Z,8.43
2023-08-26T12:10:52.738Z,9.57
2023-08-26T12:13:55.210Z,8.70
2023-08-26T12:17:04.703Z,8.93
2023-08-26T12:20:26.359Z,8.90
2023-08-26T12:23:30.456Z,9.38
2023-08-26T12:26:32.803Z,9.57
2023-08-26T12:29:35.660Z,10.37
2023-08-26T12:32:38.301Z,8.98
2023-08-26T12:35:41.123Z,8.88
2023-08-26T12:38:43.501Z,9.55
2023-08-26T12:41:46.700Z,8.82
2023-08-26T12:44:50.008Z,8.57
2023-08-26T12:47:54.176Z,9.05
2023-08-26T12:50:56.616Z,8.68
2023-08-26T12:53:59.310Z,8.93
2023-08-26T12:57:01.756Z,9.73
2023-08-26T13:00:05.637Z,8.77
2023-08-26T13:03:08.099Z,8.50
2023-08-26T13:06:11.457Z,8.65
2023-08-26T13:09:13.895Z,8.88
2023-08-26T13:12:17.487Z,8.48
2023-08-26T13:15:19.888Z,9.10
2023-08-26T13:18:22.598Z,8.02
2023-08-26T13:21:25.493Z,8.10
2023-08-26T13:24:28.247Z,8.80
2023-08-26T13:27:31.392Z,7.78
2023-08-26T13:30:34.314Z,8.40
2023-08-26T13:33:36.922Z,9.32
2023-08-26T13:36:50.831Z,8.00
2023-08-26T13:39:53.946Z,8.57
2023-08-26T13:42:57.050Z,8.40
2023-08-26T13:45:59.711Z,9.10
2023-08-26T13:49:02.415Z,7.87
2023-08-26T13:52:05.104Z,8.52
2023-08-26T13:55:08.216Z,8.48
2023-08-26T13:58:10.655Z,8.50
2023-08-26T14:01:13.572Z,8.40
2023-08-26T14:04:16.283Z,9.70
2023-08-26T14:07:18.660Z,8.20
2023-08-26T14:10:21.342Z,8.77
2023-08-26T14:13:23.858Z,8.27
2023-08-26T14:16:28.417Z,9.17
2023-08-26T14:19:30.871Z,8.23
2023-08-26T14:22:33.627Z,9.02
2023-08-26T14:25:40.486Z,8.32
2023-08-26T14:28:43.109Z,8.27
2023-08-26T14:31:45.992Z,8.67
2023-08-26T14:34:48.765Z,8.18
2023-08-26T14:37:51.293Z,8.57
2023-08-26T14:40:54.512Z,7.78
2023-08-26T14:43:56.900Z,8.57
2023-08-26T14:46:59.634Z,8.40
2023-08-26T14:50:02.217Z,8.43
2023-08-26T14:53:07.447Z,8.65
2023-08-26T14:56:10.371Z,8.15
2023-08-26T14:59:13.006Z,8.52
2023-08-26T15:02:17.257Z,8.93
2023-08-26T15:05:20.155Z,8.70
2023-08-26T15:08:22.567Z,8.70
2023-08-26T15:11:25.321Z,8.38
2023-08-26T15:14:27.737Z,9.23
2023-08-26T15:17:30.576Z,9.00
2023-08-26T15:20:33.092Z,8.68
2023-08-26T15:23:35.967Z,9.90
2023-08-26T15:26:38.426Z,9.07
2023-08-26T15:29:41.129Z,8.55
2023-08-26T15:32:43.598Z,9.07
2023-08-26T15:35:53.608Z,8.18
2023-08-26T15:38:56.206Z,9.02
2023-08-26T15:41:59.688Z,9.73
2023-08-26T15:45:02.342Z,8.65
2023-08-26T15:48:05.474Z,9.03
2023-08-26T15:51:07.890Z,8.02
2023-08-26T15:54:10.578Z,8.73
2023-08-26T15:57:16.750Z,8.43
2023-08-26T16:00:19.456Z,8.40
2023-08-26T16:03:22.430Z,8.30
2023-08-26T16:06:25.357Z,8.27
2023-08-26T16:09:28.072Z,7.90
2023-08-26T16:12:30.512Z,8.07
2023-08-26T16:15:33.896Z,7.50
2023-08-26T16:18:39.976Z,7.93
2023-08-26T16:21:42.670Z,7.40
2023-08-26T16:24:45.221Z,7.47
2023-08-26T16:27:48.052Z,7.62
2023-08-26T16:30:50.419Z,7.03
2023-08-26T16:33:53.094Z,7.20
2023-08-26T16:36:55.520Z,8.52
2023-08-26T16:39:59.258Z,7.60
2023-08-26T16:43:01.871Z,7.32
2023-08-26T16:46:04.629Z,7.55
2023-08-26T16:49:07.143Z,7.23
2023-08-26T16:52:09.774Z,7.37
2023-08-26T16:55:12.094Z,7.75
2023-08-26T16:58:15.319Z,7.55
2023-08-26T17:01:19.074Z,8.07
2023-08-26T17:04:21.825Z,8.13
2023-08-26T17:07:24.312Z,8.15
2023-08-26T17:10:29.454Z,7.95
2023-08-26T17:13:32.271Z,8.82
2023-08-26T17:16:35.517Z,7.22
2023-08-26T17:19:37.945Z,7.23
2023-08-26T17:22:40.717Z,7.72
2023-08-26T17:25:44.139Z,7.80
2023-08-26T17:28:46.829Z,7.32
2023-08-26T17:31:49.286Z,7.18
2023-08-26T17:34:52.045Z,8.27
2023-08-26T17:37:54.461Z,7.65
2023-08-26T17:40:57.851Z,7.90
2023-08-26T17:44:00.239Z,7.20
2023-08-26T17:47:04.022Z,8.52
2023-08-26T17:50:07.338Z,6.97
2023-08-26T17:53:12.149Z,7.95
2023-08-26T17:56:14.838Z,7.85
2023-08-26T17:59:17.531Z,7.28
2023-08-26T18:02:19.915Z,7.90
2023-08-26T18:05:22.567Z,8.37
2023-08-26T18:08:25.185Z,7.28
2023-08-26T18:11:28.031Z,7.40
2023-08-26T18:14:30.408Z,7.78
2023-08-26T18:17:37.261Z,7.25
2023-08-26T18:20:39.837Z,10.07
2023-08-26T18:23:42.617Z,8.20
2023-08-26T18:26:45.042Z,8.15
2023-08-26T18:29:47.862Z,8.00
2023-08-26T18:32:50.464Z,7.20
2023-08-26T18:35:53.244Z,8.13
2023-08-26T18:38:55.675Z,7.05
2023-08-26T18:41:58.505Z,7.53
2023-08-26T18:45:01.198Z,7.70
2023-08-26T18:48:04.284Z,7.45
2023-08-26T18:51:06.898Z,8.17
2023-08-26T18:54:09.694Z,7.82
2023-08-26T18:57:12.256Z,8.13
2023-08-26T19:00:15.066Z,7.68
2023-08-26T19:03:17.664Z,7.93
2023-08-26T19:06:20.467Z,7.57
2023-08-26T19:09:22.976Z,7.95
2023-08-26T19:12:25.732Z,7.85
2023-08-26T19:15:28.111Z,7.78
2023-08-26T19:18:30.776Z,8.63
2023-08-26T19:21:33.206Z,8.93
2023-08-26T19:24:35.989Z,8.30
2023-08-26T19:27:38.370Z,9.00
2023-08-26T19:30:45.918Z,9.35
2023-08-26T19:33:48.394Z,8.73
2023-08-26T19:36:51.090Z,7.63
2023-08-26T19:39:53.465Z,8.23
2023-08-26T19:42:56.533Z,8.40
2023-08-26T19:45:59.195Z,8.23
2023-08-26T19:49:02.056Z,7.87
2023-08-26T19:52:04.684Z,6.80
2023-08-26T19:55:07.684Z,7.40
2023-08-26T19:58:11.157Z,7.68
2023-08-26T20:01:13.884Z,7.32
2023-08-26T20:04:16.685Z,8.48
2023-08-26T20:07:19.065Z,7.87
2023-08-26T20:10:21.715Z,8.05
2023-08-26T20:13:24.092Z,7.75
2023-08-26T20:16:26.913Z,7.60
2023-08-26T20:19:29.357Z,6.93
2023-08-26T20:22:31.960Z,7.27
2023-08-26T20:25:45.754Z,8.73
2023-08-26T20:28:50.340Z,8.27
2023-08-26T20:31:54.029Z,8.10
2023-08-26T20:34:56.973Z,7.72
2023-08-26T20:37:59.729Z,8.10
2023-08-26T20:41:04.914Z,8.48
2023-08-26T20:44:07.860Z,6.62
2023-08-26T20:47:11.429Z,7.40
2023-08-26T20:50:13.861Z,7.20
2023-08-26T20:53:16.572Z,7.03
2023-08-26T20:56:19.022Z,7.82
2023-08-26T20:59:22.050Z,6.72
2023-08-26T21:02:24.493Z,7.25
2023-08-26T21:05:29.862Z,6.78
2023-08-26T21:08:33.465Z,6.83
2023-08-26T21:11:36.075Z,7.37
2023-08-26T21:14:38.499Z,7.00
2023-08-26T21:17:41.760Z,7.62
2023-08-26T21:20:44.485Z,6.32
2023-08-26T21:23:48.808Z,6.43
2023-08-26T21:26:51.601Z,6.65
2023-08-26T21:29:54.354Z,6.30
2023-08-26T21:32:57.599Z,7.05
2023-08-26T21:36:02.651Z,5.78
2023-08-26T21:39:05.474Z,6.47
2023-08-26T21:42:08.255Z,6.28
2023-08-26T21:45:11.113Z,6.57
2023-08-26T21:48:13.988Z,6.15
2023-08-26T21:51:16.566Z,6.07
2023-08-26T21:54:19.304Z,6.17
2023-08-26T21:57:21.800Z,6.62
2023-08-26T22:00:25.032Z,6.15
2023-08-26T22:03:27.824Z,6.47
2023-08-26T22:06:30.350Z,6.32
2023-08-26T22:09:33.202Z,5.97
2023-08-26T22:12:35.599Z,5.82
2023-08-26T22:15:42.512Z,6.65
2023-08-26T22:18:45.108Z,6.05
2023-08-26T22:21:47.737Z,6.18
2023-08-26T22:24:50.421Z,6.10
2023-08-26T22:27:53.094Z,5.10
2023-08-26T22:30:57.235Z,5.60
2023-08-26T22:34:00.334Z,5.47
2023-08-26T22:37:02.768Z,6.32
2023-08-26T22:40:06.687Z,5.87
2023-08-26T22:43:09.161Z,6.97
2023-08-26T22:46:12.072Z,5.85
2023-08-26T22:49:14.542Z,6.20
2023-08-26T22:52:17.257Z,5.82
2023-08-26T22:55:19.757Z,5.73
2023-08-26T22:58:22.513Z,5.70
2023-08-26T23:01:25.033Z,6.37
2023-08-26T23:04:27.811Z,5.87
2023-08-26T23:07:30.390Z,5.75
2023-08-26T23:10:33.808Z,5.43
2023-08-26T23:13:36.167Z,5.70
2023-08-26T23:16:39.105Z,6.12
2023-08-26T23:19:41.462Z,5.65
2023-08-26T23:22:47.474Z,5.82
2023-08-26T23:25:49.965Z,5.80
2023-08-26T23:28:53.318Z,5.60
2023-08-26T23:31:55.883Z,6.18
2023-08-26T23:35:05.397Z,5.20
2023-08-26T23:38:07.874Z,6.18
2023-08-26T23:41:11.077Z,5.77
2023-08-26T23:44:13.556Z,5.80
2023-08-26T23:47:16.249Z,6.20
2023-08-26T23:50:21.684Z,5.47
2023-08-26T23:53:24.360Z,5.78
2023-08-26T23:56:26.682Z,6.33
2023-08-26T23:59:29.380Z,6.35
